createdAt,value
2018-08-20T00:00:11.469Z,10.83
2018-08-20T00:05:15.142Z,11.20
2018-08-20T00:10:18.786Z,13.00
2018-08-20T00:15:22.519Z,11.00
2018-08-20T00:20:26.324Z,12.60
2018-08-20T00:25:30.081Z,12.50
2018-08-20T00:30:33.739Z,10.00
2018-08-20T00:35:37.402Z,10.80
2018-08-20T00:40:41.076Z,10.25
2018-08-20T00:45:44.782Z,10.80
2018-08-20T00:50:48.476Z,11.00
2018-08-20T00:55:52.142Z,11.40
2018-08-20T01:00:55.788Z,8.40
2018-08-20T01:05:59.482Z,11.25
2018-08-20T01:11:03.129Z,9.25
2018-08-20T01:16:06.853Z,10.00
2018-08-20T01:21:10.573Z,10.20
2018-08-20T01:26:14.289Z,9.75
2018-08-20T01:31:18.061Z,11.00
2018-08-20T01:36:21.722Z,8.60
2018-08-20T01:41:25.413Z,10.00
2018-08-20T01:46:29.058Z,10.50
2018-08-20T01:51:32.648Z,11.00
2018-08-20T01:56:36.331Z,10.00
2018-08-20T02:01:39.974Z,9.00
2018-08-20T02:06:43.663Z,11.80
2018-08-20T02:11:47.355Z,8.50
2018-08-20T02:16:51.009Z,11.75
2018-08-20T02:21:54.747Z,9.00
2018-08-20T02:26:58.430Z,8.50
2018-08-20T02:32:02.095Z,9.75
2018-08-20T02:37:06.150Z,8.00
2018-08-20T02:42:09.830Z,9.50
2018-08-20T02:47:13.505Z,8.00
2018-08-20T02:52:17.205Z,10.00
2018-08-20T02:57:20.822Z,11.60
2018-08-20T03:02:24.453Z,8.00
2018-08-20T03:07:28.212Z,10.00
2018-08-20T03:12:31.982Z,9.60
2018-08-20T03:17:35.640Z,7.00
2018-08-20T03:22:39.339Z,8.75
2018-08-20T03:27:43.064Z,6.80
2018-08-20T03:32:46.782Z,8.80
2018-08-20T03:37:50.505Z,7.00
2018-08-20T03:42:54.227Z,8.50
2018-08-20T03:47:58.012Z,10.40
2018-08-20T03:53:01.684Z,7.25
2018-08-20T03:58:05.325Z,10.50
2018-08-20T04:03:08.991Z,10.50
2018-08-20T04:08:12.911Z,8.20
2018-08-20T04:13:16.677Z,12.00
2018-08-20T04:18:20.314Z,12.00
2018-08-20T04:23:23.997Z,11.00
2018-08-20T04:28:27.597Z,11.50
2018-08-20T04:33:31.245Z,10.75
2018-08-20T04:38:34.841Z,14.00
2018-08-20T04:43:38.480Z,13.75
2018-08-20T04:48:42.129Z,10.80
2018-08-20T04:53:45.771Z,15.00
2018-08-20T04:58:49.606Z,14.00
2018-08-20T05:03:53.727Z,10.25
2018-08-20T05:08:57.413Z,11.25
2018-08-20T05:14:01.060Z,11.20
2018-08-20T05:19:04.757Z,11.20
2018-08-20T05:24:08.371Z,10.50
2018-08-20T05:29:12.015Z,12.00
2018-08-20T05:34:15.686Z,11.80
2018-08-20T05:39:19.322Z,11.75
2018-08-20T05:44:24.846Z,12.50
2018-08-20T05:49:28.533Z,10.25
2018-08-20T05:54:32.159Z,13.50
2018-08-20T05:59:35.884Z,14.40
2018-08-20T06:04:39.894Z,13.60
2018-08-20T06:09:43.569Z,13.75
2018-08-20T06:14:47.184Z,13.00
2018-08-20T06:19:50.845Z,13.00
2018-08-20T06:24:54.483Z,12.00
2018-08-20T06:29:58.137Z,12.80
2018-08-20T06:35:02.679Z,14.60
2018-08-20T06:40:08.278Z,17.00
2018-08-20T06:45:15.444Z,15.00
2018-08-20T06:50:19.152Z,16.60
2018-08-20T06:55:22.996Z,14.00
2018-08-20T07:00:26.780Z,17.40
2018-08-20T07:05:30.474Z,15.75
2018-08-20T07:10:42.248Z,16.50
2018-08-20T07:15:45.920Z,16.50
2018-08-20T07:20:49.573Z,16.60
2018-08-20T07:25:53.344Z,17.75
2018-08-20T07:30:57.020Z,17.50
2018-08-20T07:36:00.701Z,17.50
2018-08-20T07:41:04.526Z,18.50
2018-08-20T07:46:08.273Z,18.25
2018-08-20T07:51:11.942Z,18.40
2018-08-20T07:56:15.687Z,21.00
2018-08-20T08:01:19.365Z,23.00
2018-08-20T08:06:23.009Z,21.00
2018-08-20T08:11:26.753Z,19.00
2018-08-20T08:16:30.516Z,19.80
2018-08-20T08:21:34.250Z,17.50
2018-08-20T08:26:38.116Z,17.75
2018-08-20T08:31:43.919Z,18.40
2018-08-20T08:36:47.742Z,18.80
2018-08-20T08:41:52.133Z,18.40
2018-08-20T08:46:55.899Z,16.40
2018-08-20T08:52:00.199Z,16.75
2018-08-20T08:57:04.107Z,21.80
2018-08-20T09:02:07.872Z,17.80
2018-08-20T09:07:11.546Z,16.75
2018-08-20T09:12:15.255Z,20.00
2018-08-20T09:17:18.964Z,17.20
2018-08-20T09:22:22.639Z,18.60
2018-08-20T09:27:26.430Z,16.25
2018-08-20T09:32:30.117Z,20.00
2018-08-20T09:37:33.786Z,18.50
2018-08-20T09:42:38.161Z,16.25
2018-08-20T09:47:42.696Z,18.00
2018-08-20T09:52:46.541Z,23.50
2018-08-20T09:57:50.229Z,16.00
2018-08-20T10:02:53.875Z,15.60
2018-08-20T10:07:57.457Z,18.25
2018-08-20T10:13:01.204Z,16.50
2018-08-20T10:18:04.950Z,12.80
2018-08-20T10:23:08.764Z,16.20
2018-08-20T10:28:12.466Z,12.25
2018-08-20T10:33:16.125Z,15.25
2018-08-20T10:38:19.776Z,14.40
2018-08-20T10:43:23.382Z,13.25
2018-08-20T10:48:27.007Z,14.50
2018-08-20T10:53:30.665Z,12.40
2018-08-20T10:58:34.335Z,10.50
2018-08-20T11:03:40.130Z,12.25
2018-08-20T11:08:43.762Z,11.20
2018-08-20T11:13:47.828Z,11.50
2018-08-20T11:18:51.558Z,10.50
2018-08-20T11:23:57.598Z,10.20
2018-08-20T11:29:01.274Z,11.25
2018-08-20T11:34:04.947Z,11.60
2018-08-20T11:39:14.832Z,13.50
2018-08-20T11:44:18.495Z,9.00
2018-08-20T11:49:22.337Z,14.40
2018-08-20T11:54:27.052Z,16.40
2018-08-20T11:59:30.723Z,12.25
2018-08-20T12:04:34.410Z,12.40
2018-08-20T12:09:38.070Z,11.20
2018-08-20T12:14:42.634Z,11.20
2018-08-20T12:19:46.307Z,12.75
2018-08-20T12:24:49.979Z,9.80
2018-08-20T12:29:53.871Z,10.00
2018-08-20T12:34:58.308Z,11.50
2018-08-20T12:40:05.231Z,11.20
2018-08-20T12:45:09.031Z,11.60
2018-08-20T12:50:12.633Z,9.83
2018-08-20T12:55:16.346Z,9.20
2018-08-20T13:00:20.042Z,9.75
2018-08-20T13:05:23.753Z,9.40
2018-08-20T13:10:27.465Z,8.40
2018-08-20T13:15:31.119Z,9.50
2018-08-20T13:20:34.835Z,12.20
2018-08-20T13:25:38.539Z,10.00
2018-08-20T13:30:42.231Z,10.75
2018-08-20T13:35:45.858Z,8.75
2018-08-20T13:40:49.614Z,8.20
2018-08-20T13:45:53.309Z,11.00
2018-08-20T13:50:57.131Z,11.80
2018-08-20T13:56:00.846Z,8.00
2018-08-20T14:01:04.652Z,5.40
2018-08-20T14:11:45.897Z,10.00
2018-08-20T14:16:49.669Z,9.60
2018-08-20T14:21:54.099Z,10.00
2018-08-20T14:26:57.697Z,7.00
2018-08-20T14:32:01.448Z,8.40
2018-08-20T14:37:05.610Z,9.00
2018-08-20T14:42:09.530Z,8.00
2018-08-20T14:47:13.665Z,8.00
2018-08-20T14:52:17.741Z,7.75
2018-08-20T14:57:21.612Z,6.75
2018-08-20T15:02:26.044Z,6.80
2018-08-20T15:07:29.891Z,5.40
2018-08-20T15:12:33.514Z,8.00
2018-08-20T15:17:37.300Z,6.80
2018-08-20T15:22:40.986Z,6.40
2018-08-20T15:27:44.670Z,9.20
2018-08-20T15:32:48.395Z,7.25
2018-08-20T15:37:52.058Z,8.40
2018-08-20T15:42:55.936Z,7.00
2018-08-20T15:47:59.716Z,7.40
2018-08-20T15:53:03.370Z,7.00
2018-08-20T15:58:07.035Z,6.00
2018-08-20T16:03:10.686Z,6.00
2018-08-20T16:08:14.500Z,9.00
2018-08-20T16:13:18.453Z,7.60
2018-08-20T16:18:22.153Z,7.40
2018-08-20T16:23:26.119Z,10.00
2018-08-20T16:28:30.820Z,10.00
2018-08-20T16:33:34.522Z,9.25
2018-08-20T16:38:38.258Z,13.00
2018-08-20T16:43:42.052Z,10.60
2018-08-20T16:48:45.854Z,10.20
2018-08-20T16:53:49.621Z,10.00
2018-08-20T16:58:53.409Z,7.75
2018-08-20T17:03:57.064Z,6.40
2018-08-20T17:09:00.748Z,10.00
2018-08-20T17:14:04.473Z,9.50
2018-08-20T17:19:08.174Z,10.20
2018-08-20T17:24:11.920Z,10.40
2018-08-20T17:29:15.689Z,7.50
2018-08-20T17:34:19.604Z,8.00
2018-08-20T17:39:23.370Z,6.00
2018-08-20T17:44:26.977Z,8.20
2018-08-20T17:49:31.348Z,8.00
2018-08-20T17:54:35.079Z,6.80
2018-08-20T17:59:39.755Z,4.40
2018-08-20T18:04:44.666Z,5.25
2018-08-20T18:09:48.360Z,4.75
2018-08-20T18:14:56.842Z,3.40
2018-08-20T18:25:09.039Z,5.20
2018-08-20T18:30:14.243Z,6.17
2018-08-20T18:35:21.576Z,5.00
2018-08-20T18:40:25.418Z,5.80
2018-08-20T18:45:29.306Z,3.75
2018-08-20T18:50:33.095Z,5.50
2018-08-20T18:55:36.949Z,6.60
2018-08-20T19:00:40.784Z,4.80
2018-08-20T19:05:50.621Z,4.75
2018-08-20T19:10:54.476Z,5.75
2018-08-20T19:15:58.246Z,6.75
2018-08-20T19:21:02.198Z,5.00
2018-08-20T19:26:06.459Z,4.00
2018-08-20T19:31:10.593Z,5.25
2018-08-20T19:36:14.487Z,4.50
2018-08-20T19:41:18.513Z,4.00
2018-08-20T19:46:39.420Z,3.25
2018-08-20T19:51:44.820Z,3.25
2018-08-20T19:56:48.627Z,4.00
2018-08-20T20:01:53.346Z,4.75
2018-08-20T20:06:58.369Z,5.00
2018-08-20T20:12:02.095Z,5.20
2018-08-20T20:17:05.949Z,5.20
2018-08-20T20:22:14.991Z,4.75
2018-08-20T20:27:18.801Z,5.00
2018-08-20T20:32:22.567Z,5.00
2018-08-20T20:37:26.493Z,5.00
2018-08-20T20:42:31.271Z,3.75
2018-08-20T20:47:34.958Z,5.40
2018-08-20T20:52:38.946Z,6.25
2018-08-20T20:57:42.826Z,5.25
2018-08-20T21:02:46.701Z,7.50
2018-08-20T21:07:50.865Z,6.50
2018-08-20T21:12:54.685Z,6.00
2018-08-20T21:17:58.631Z,7.00
2018-08-20T21:23:02.419Z,6.00
2018-08-20T21:28:06.060Z,9.00
2018-08-20T21:33:10.436Z,7.80
2018-08-20T21:38:14.125Z,6.00
2018-08-20T21:43:17.737Z,7.00
2018-08-20T21:48:21.471Z,6.00
2018-08-20T21:53:30.449Z,6.75
2018-08-20T21:58:35.605Z,8.60
2018-08-20T22:03:39.940Z,11.00
2018-08-20T22:08:43.720Z,9.00
2018-08-20T22:13:48.058Z,10.00
2018-08-20T22:18:58.423Z,9.20
2018-08-20T22:24:03.425Z,8.25
2018-08-20T22:29:07.134Z,10.40
2018-08-20T22:34:10.834Z,7.00
2018-08-20T22:39:14.549Z,7.50
2018-08-20T22:44:18.300Z,9.00
2018-08-20T22:49:22.142Z,10.25
2018-08-20T22:54:25.875Z,7.60
2018-08-20T22:59:29.655Z,8.00
2018-08-20T23:04:33.337Z,7.60
2018-08-20T23:09:37.045Z,7.00
2018-08-20T23:14:40.826Z,9.00
2018-08-20T23:19:44.481Z,11.00
2018-08-20T23:24:52.210Z,10.60
2018-08-20T23:29:55.885Z,10.20
2018-08-20T23:35:00.008Z,8.00
2018-08-20T23:40:07.309Z,10.20
2018-08-20T23:45:10.978Z,9.60
2018-08-20T23:50:14.689Z,9.20
2018-08-20T23:55:18.360Z,9.40
